Time;durP1;ratioP1;P1;durP2;ratioP2;P2;SDS_P1;SDS_P2;PMS_P1;PMS_P2;Temp;Humidity;BMP_temperature;BMP_pressure;BME280_temperature;BME280_humidity;BME280_pressure;Samples;Min_cycle;Max_cycle;Signal;HPM_P1;HPM_P2
2023/04/24 04:19:56;;;;;;;11.00;9.90;;;;;;;13.41;65.88;99678.79;109314;1263;71703;-88
2023/04/24 04:23:12;;;;;;;10.40;9.50;;;;;;;13.41;65.96;99678.26;109197;1264;59363;-87
2023/04/24 04:27:00;;;;;;;10.40;9.30;;;;;;;13.40;65.94;99679.69;109229;1264;58654;-88
2023/04/24 06:27:07;;;;;;;6.50;5.90;;;;;;;24.30;62.85;99635.43;109312;1262;60203;-88
2023/04/24 06:30:54;;;;;;;6.10;5.50;;;;;;;24.58;62.44;99637.64;109239;1263;72440;-88
2023/04/24 06:34:42;;;;;;;5.30;4.80;;;;;;;24.19;62.21;99633.00;108515;1271;69114;-89
2023/04/24 09:11:53;;;;;;;;;;;;;;;;;;;;;
2023/04/24 09:15:30;;;;;;;9.50;8.60;;;;;;;18.06;61.14;99648.00;104948;1266;5458011;-87
2023/04/24 09:19:18;;;;;;;9.70;8.70;;;;;;;18.44;61.01;99651.30;109083;1265;72208;-87
2023/04/24 09:23:17;;;;;;;;;;;;;;;;;;;;;
2023/04/24 09:27:05;;;;;;;;;;;;;;;;;;;;;
2023/04/24 09:30:44;;;;;;;10.60;8.80;;;;;;;18.93;60.82;99638.17;108712;1270;72516;-88
2023/04/24 09:34:44;;;;;;;13.00;8.50;;;;;;;19.17;60.88;99634.67;108159;1278;67184;-88
2023/04/24 09:38:33;;;;;;;12.00;9.50;;;;;;;19.38;60.93;99630.41;107282;1286;72317;-88
2023/04/24 09:42:26;;;;;;;9.70;8.80;;;;;;;19.46;60.89;99632.14;107291;1286;58157;-87
2023/04/24 09:46:17;;;;;;;10.90;8.70;;;;;;;19.48;60.86;99632.17;107318;1285;61611;-87
2023/04/24 09:50:06;;;;;;;9.70;8.70;;;;;;;19.38;60.68;99638.42;107274;1286;72529;-87
2023/04/24 09:53:58;;;;;;;8.60;7.80;;;;;;;19.29;60.76;99637.54;106785;1292;68228;-87
2023/04/24 11:42:07;;;;;;;6.20;5.70;;;;;;;19.91;59.52;99647.71;109238;1264;65600;-89
2023/04/24 11:48:57;;;;;;;4.60;4.20;;;;;;;19.97;59.44;99643.10;109093;1265;57841;-88
2023/04/24 12:08:34;;;;;;;3.70;2.20;;;;;;;20.23;58.78;99645.13;109148;1264;72388;-87
2023/04/24 12:12:22;;;;;;;2.60;1.60;;;;;;;20.17;58.56;99643.44;108874;1266;67426;-88
2023/04/24 12:16:09;;;;;;;1.70;1.60;;;;;;;20.12;58.42;99642.71;108883;1267;72446;-86
2023/04/24 12:20:07;;;;;;;1.20;1.10;;;;;;;20.12;58.10;99636.04;108886;1268;58116;-87
2023/04/24 12:23:53;;;;;;;1.40;1.30;;;;;;;20.13;58.07;99638.48;108340;1275;58918;-87
2023/04/24 12:27:45;;;;;;;2.30;1.80;;;;;;;20.10;57.83;99632.35;108370;1276;72272;-87
2023/04/24 14:40:56;;;;;;;4.80;1.70;;;;;;;18.12;53.72;99590.75;109211;1263;59513;-88
2023/04/24 14:44:43;;;;;;;1.50;1.10;;;;;;;18.12;53.60;99588.16;109214;1263;73470;-88
2023/04/24 14:48:30;;;;;;;2.40;1.30;;;;;;;18.04;53.51;99590.59;108656;1270;67334;-88
2023/04/24 14:52:17;;;;;;;2.10;1.30;;;;;;;17.97;53.54;99594.15;108638;1270;71080;-88
2023/04/24 14:55:33;;;;;;;1.50;1.30;;;;;;;17.92;53.53;99595.50;109194;1264;58153;-88
2023/04/24 14:59:21;;;;;;;1.80;1.20;;;;;;;17.91;53.39;99597.52;108495;1273;58779;-88
2023/04/24 15:13:18;;;;;;;;;;;;;;;17.80;53.25;99605.86;109071;1263;59593;-87
2023/04/24 15:19:40;;;;;;;0.90;0.80;;;;;;;17.72;53.08;99608.23;109134;1263;66404;-87
2023/04/24 17:29:43;;;;;;;3.60;1.50;;;;;;;15.89;56.14;99610.19;109088;1265;60234;-86
2023/04/24 17:33:31;;;;;;;1.70;0.90;;;;;;;15.76;55.96;99608.81;108602;1271;73018;-89
2023/04/24 17:37:21;;;;;;;1.40;1.00;;;;;;;15.63;55.93;99613.67;108676;1271;67793;-90
2023/04/24 17:40:42;;;;;;;2.90;1.10;;;;;;;15.55;56.19;99618.77;109097;1262;72426;-87
2023/04/24 17:44:28;;;;;;;1.20;0.80;;;;;;;15.46;56.22;99624.08;108991;1265;57964;-88
2023/04/24 17:48:15;;;;;;;2.20;1.40;;;;;;;15.41;56.37;99625.58;109105;1263;58685;-88
2023/04/24 17:52:02;;;;;;;2.00;1.60;;;;;;;15.33;56.36;99638.11;109060;1263;72164;-88
2023/04/24 17:55:50;;;;;;;2.00;1.40;;;;;;;15.24;56.58;99642.05;108614;1270;68009;-88
2023/04/24 17:59:37;;;;;;;2.10;1.40;;;;;;;15.17;56.60;99648.80;108600;1270;70446;-88
2023/04/24 18:03:23;;;;;;;3.80;1.10;;;;;;;15.08;56.59;99653.80;108591;1270;58184;-88
2023/04/24 18:07:10;;;;;;;4.60;1.10;;;;;;;14.97;56.63;99653.86;108606;1270;58667;-87
2023/04/24 18:10:59;;;;;;;1.60;0.90;;;;;;;14.83;56.78;99655.20;108618;1270;72522;-88
2023/04/24 18:14:46;;;;;;;2.50;1.60;;;;;;;14.78;56.87;99657.74;108609;1270;68490;-88
2023/04/24 18:18:34;;;;;;;1.80;1.20;;;;;;;14.70;56.99;99660.38;108608;1270;72453;-88
2023/04/24 18:22:21;;;;;;;2.60;1.80;;;;;;;14.68;57.15;99664.31;108633;1270;58654;-87
2023/04/24 18:26:21;;;;;;;;;;;;;;;;;;;;;
2023/04/24 18:30:10;;;;;;;;;;;;;;;;;;;;;
2023/04/24 18:33:48;;;;;;;3.00;1.70;;;;;;;14.53;57.68;99666.77;108182;1277;66580;-87
2023/04/24 18:37:48;;;;;;;;;;;;;;;;;;;;;
2023/04/24 18:41:37;;;;;;;;;;;;;;;;;;;;;
2023/04/24 18:45:16;;;;;;;3.20;1.80;;;;;;;14.36;58.22;99679.02;107065;1288;58735;-87
2023/04/24 18:49:14;;;;;;;;;;;;;;;;;;;;;
2023/04/24 18:53:03;;;;;;;;;;;;;;;;;;;;;
2023/04/24 18:56:50;;;;;;;;;;;;;;;;;;;;;
2023/04/24 19:00:44;;;;;;;;;;;;;;;;;;;;;
2023/04/24 19:04:21;;;;;;;4.50;2.70;;;;;;;14.17;59.11;99685.23;105360;1306;60028;-87
2023/04/24 19:08:10;;;;;;;2.50;2.00;;;;;;;14.18;59.26;99685.19;105544;1306;73275;-87
2023/04/24 19:12:13;;;;;;;;;;;;;;;;;;;;;
2023/04/24 19:15:49;;;;;;;2.60;2.20;;;;;;;14.19;59.57;99689.83;105441;1303;71141;-89
2023/04/24 19:19:36;;;;;;;5.20;2.20;;;;;;;14.19;59.71;99685.98;105521;1306;58358;-88
2023/04/24 19:24:08;;;;;;;4.60;2.10;;;;;;;14.20;59.73;99688.90;105673;1303;58799;-89
2023/04/24 19:27:23;;;;;;;;;;;;;;;;;;;;;
2023/04/24 19:31:05;;;;;;;6.70;3.70;;;;;;;14.17;60.02;99697.20;105359;1309;67287;-90
2023/04/24 19:34:52;;;;;;;4.40;3.10;;;;;;;14.16;60.20;99694.99;105662;1303;72310;-87
2023/04/24 19:38:44;;;;;;;5.10;4.20;;;;;;;14.16;60.51;99691.16;106048;1297;60201;-89
2023/04/24 19:42:31;;;;;;;8.70;3.80;;;;;;;14.14;60.48;99686.23;105572;1303;59110;-87
2023/04/24 19:46:29;;;;;;;5.40;4.30;;;;;;;14.13;60.56;99687.82;106166;1296;72487;-89
2023/04/24 19:50:14;;;;;;;7.20;3.50;;;;;;;14.12;60.73;99688.25;106520;1293;70252;-89
2023/04/24 19:54:00;;;;;;;5.20;3.70;;;;;;;14.11;60.82;99690.73;106501;1294;72400;-89
2023/04/24 19:57:47;;;;;;;5.00;3.80;;;;;;;14.09;61.02;99686.44;107235;1285;58655;-88
2023/04/24 20:01:34;;;;;;;4.70;3.70;;;;;;;14.07;61.06;99686.21;107242;1285;58664;-89
2023/04/24 20:05:21;;;;;;;4.90;3.90;;;;;;;14.06;61.22;99684.17;107883;1279;72361;-88
2023/04/24 20:09:07;;;;;;;7.10;4.30;;;;;;;14.07;61.33;99688.10;108496;1273;67123;-87
2023/04/24 20:12:54;;;;;;;6.00;4.20;;;;;;;14.03;61.52;99691.93;108456;1274;71226;-89
2023/04/24 20:16:41;;;;;;;8.20;5.10;;;;;;;14.04;61.62;99690.70;108543;1274;58756;-88
2023/04/24 20:20:28;;;;;;;7.80;6.30;;;;;;;14.04;61.63;99689.28;109156;1263;58670;-88
2023/04/24 20:24:15;;;;;;;11.00;6.60;;;;;;;14.03;61.84;99687.30;108597;1273;72428;-88
2023/04/24 20:28:01;;;;;;;8.50;6.60;;;;;;;14.02;61.98;99686.13;108535;1273;67387;-88
2023/04/24 20:31:48;;;;;;;9.30;7.00;;;;;;;13.99;61.91;99690.23;108564;1272;72945;-88
2023/04/24 20:35:35;;;;;;;10.60;6.60;;;;;;;13.96;62.07;99692.30;108550;1273;58919;-88
2023/04/24 20:39:22;;;;;;;7.80;6.50;;;;;;;13.90;62.16;99689.58;108577;1273;60557;-88
2023/04/24 20:43:09;;;;;;;9.30;6.00;;;;;;;13.86;62.23;99689.95;108620;1272;72453;-88
2023/04/24 20:46:55;;;;;;;6.80;5.60;;;;;;;13.80;62.25;99690.91;108621;1274;67202;-88
2023/04/24 20:50:43;;;;;;;7.80;5.30;;;;;;;13.76;62.33;99695.26;108595;1273;71237;-88
2023/04/24 20:54:28;;;;;;;8.40;4.70;;;;;;;13.72;62.47;99693.69;108585;1273;58328;-88
2023/04/24 20:58:17;;;;;;;5.50;3.90;;;;;;;13.67;62.45;99694.40;108630;1274;58721;-88
2023/04/24 21:02:02;;;;;;;4.80;4.10;;;;;;;13.63;62.43;99694.43;108614;1271;73624;-88
2023/04/24 21:05:48;;;;;;;4.90;4.40;;;;;;;13.61;62.54;99699.01;108615;1271;68037;-88
2023/04/24 21:09:35;;;;;;;5.40;4.10;;;;;;;13.58;62.73;99699.11;108638;1271;72509;-88
2023/04/24 21:13:22;;;;;;;6.00;4.40;;;;;;;13.54;62.78;99698.27;108079;1277;58374;-88
2023/04/24 21:17:17;;;;;;;5.00;4.00;;;;;;;13.51;62.87;99701.70;104042;1277;5449251;-89
2023/04/24 21:21:04;;;;;;;5.80;3.60;;;;;;;13.44;62.78;99700.78;108105;1277;72319;-88
2023/04/24 21:24:51;;;;;;;5.70;3.80;;;;;;;13.40;62.85;99703.02;108065;1277;69524;-87
2023/04/24 21:28:37;;;;;;;4.70;4.00;;;;;;;13.31;62.84;99702.02;108139;1278;71261;-88
2023/04/24 21:32:24;;;;;;;4.20;3.70;;;;;;;13.22;62.93;99702.61;108107;1277;58296;-88
2023/04/24 21:36:11;;;;;;;3.70;3.20;;;;;;;13.13;62.91;99706.20;107427;1285;58861;-88
2023/04/24 21:39:58;;;;;;;3.80;3.40;;;;;;;13.05;62.80;99706.73;108083;1280;73291;-88
2023/04/24 21:43:44;;;;;;;8.50;4.70;;;;;;;12.96;62.74;99713.52;108066;1278;67278;-88
2023/04/24 21:47:31;;;;;;;16.50;6.60;;;;;;;12.86;62.81;99717.54;108051;1279;72389;-88
2023/04/24 21:51:19;;;;;;;17.30;7.70;;;;;;;12.80;62.70;99718.48;108565;1273;59470;-88
2023/04/24 21:55:05;;;;;;;11.40;5.50;;;;;;;12.73;62.72;99716.67;108597;1273;59692;-89
2023/04/24 21:58:51;;;;;;;12.00;4.30;;;;;;;12.67;62.63;99717.42;107877;1281;72348;-88
2023/04/24 22:02:38;;;;;;;7.90;3.90;;;;;;;12.57;62.63;99716.23;107859;1283;67654;-88
2023/04/24 22:06:26;;;;;;;8.30;4.20;;;;;;;12.50;62.62;99718.92;107738;1282;72516;-88
2023/04/24 22:10:12;;;;;;;5.20;2.70;;;;;;;12.42;62.62;99721.87;107885;1281;59892;-88
2023/04/24 22:14:00;;;;;;;3.60;2.30;;;;;;;12.35;62.66;99726.27;108536;1273;59896;-87
2023/04/24 22:17:48;;;;;;;3.70;1.90;;;;;;;12.33;62.55;99730.17;108532;1273;73323;-88
2023/04/24 22:21:33;;;;;;;4.40;1.40;;;;;;;12.26;62.62;99733.34;108561;1273;67390;-88
2023/04/24 22:25:20;;;;;;;2.60;1.50;;;;;;;12.21;62.57;99729.91;108558;1273;72310;-88
2023/04/24 22:29:07;;;;;;;2.00;1.30;;;;;;;12.15;62.55;99729.80;108069;1279;59246;-88
2023/04/24 22:32:54;;;;;;;1.60;1.50;;;;;;;12.10;62.57;99731.36;107460;1284;59496;-88
2023/04/24 22:36:41;;;;;;;3.80;1.20;;;;;;;12.04;62.61;99734.15;108047;1280;74549;-88
2023/04/24 22:40:27;;;;;;;1.70;1.30;;;;;;;12.03;62.59;99737.48;108046;1280;67193;-88
2023/04/24 22:44:14;;;;;;;1.20;1.10;;;;;;;11.99;62.60;99741.59;108049;1280;72493;-88
2023/04/24 22:48:01;;;;;;;2.00;1.30;;;;;;;11.93;62.69;99741.65;108056;1279;59033;-88
2023/04/24 22:51:48;;;;;;;3.60;1.60;;;;;;;11.88;62.61;99744.62;108066;1279;58793;-88
2023/04/24 22:55:34;;;;;;;4.10;1.60;;;;;;;11.83;62.68;99746.84;108034;1279;74408;-88
2023/04/24 22:59:22;;;;;;;2.00;1.40;;;;;;;11.79;62.65;99752.16;108054;1279;68488;-88
2023/04/24 23:03:08;;;;;;;2.30;1.60;;;;;;;11.75;62.63;99753.66;108051;1278;72406;-88
2023/04/24 23:06:55;;;;;;;1.30;1.20;;;;;;;11.62;62.63;99759.97;108533;1273;58867;-88
2023/04/24 23:10:41;;;;;;;2.70;1.20;;;;;;;11.50;62.61;99756.05;109129;1268;59875;-88
2023/04/24 23:14:28;;;;;;;1.70;1.20;;;;;;;11.43;62.55;99753.23;109099;1263;73103;-88
2023/04/24 23:18:15;;;;;;;2.00;1.10;;;;;;;11.34;62.62;99760.94;109203;1263;67052;-89
2023/04/24 23:22:01;;;;;;;2.90;0.90;;;;;;;11.27;62.58;99757.01;109178;1263;71141;-89
2023/04/24 23:25:48;;;;;;;1.00;1.00;;;;;;;11.25;62.55;99758.29;109131;1263;59248;-88
2023/04/24 23:29:35;;;;;;;2.10;1.30;;;;;;;11.15;62.56;99761.91;109165;1264;58945;-88
2023/04/24 23:33:21;;;;;;;3.30;0.80;;;;;;;11.09;62.57;99755.73;109181;1267;73262;-88
2023/04/24 23:37:08;;;;;;;2.10;0.80;;;;;;;11.02;62.56;99753.67;109172;1263;68503;-88
2023/04/24 23:40:55;;;;;;;0.60;0.50;;;;;;;10.95;62.52;99758.91;109191;1265;73198;-88
2023/04/24 23:44:41;;;;;;;0.80;0.70;;;;;;;10.88;62.45;99758.83;108724;1270;59322;-88
2023/04/24 23:48:28;;;;;;;0.60;0.40;;;;;;;10.81;62.42;99760.55;108753;1271;59779;-89
2023/04/24 23:52:16;;;;;;;0.70;0.60;;;;;;;10.77;62.40;99761.23;108531;1274;75311;-89
2023/04/24 23:56:03;;;;;;;1.20;0.50;;;;;;;10.72;62.39;99765.49;108542;1273;67900;-88
2023/04/24 23:59:50;;;;;;;0.70;0.30;;;;;;;10.67;62.42;99766.16;107764;1282;71064;-89
